Time;durP1;ratioP1;P1;durP2;ratioP2;P2;SDS_P1;SDS_P2;PMS_P1;PMS_P2;Temp;Humidity;BMP_temperature;BMP_pressure;BME280_temperature;BME280_humidity;BME280_pressure;Samples;Min_cycle;Max_cycle;Signal;HPM_P1;HPM_P2
2022/09/13 00:00:23;;;;;;;20.63;6.97;;;;;;;;;;756390;182;918727;-56
2022/09/13 00:02:49;;;;;;;11.17;6.07;;;;;;;;;;751838;184;919034;-54
2022/09/13 00:05:15;;;;;;;9.65;6.80;;;;;;;;;;746283;185;955104;-54
2022/09/13 00:07:40;;;;;;;12.00;6.93;;;;;;;;;;749110;185;914900;-56
2022/09/13 00:10:07;;;;;;;34.20;7.73;;;;;;;;;;759561;184;913114;-55
2022/09/13 00:12:33;;;;;;;44.57;8.33;;;;;;;;;;753157;184;919304;-54
2022/09/13 00:14:59;;;;;;;42.00;10.45;;;;;;;;;;753176;184;916233;-54
2022/09/13 00:17:25;;;;;;;39.13;8.30;;;;;;;;;;761437;182;915594;-54
2022/09/13 00:19:51;;;;;;;22.97;7.70;;;;;;;;;;755200;182;921606;-56
2022/09/13 00:22:17;;;;;;;24.27;7.50;;;;;;;;;;750893;184;917892;-56
2022/09/13 00:24:43;;;;;;;33.80;10.07;;;;;;;;;;761474;182;918862;-54
2022/09/13 00:27:09;;;;;;;23.43;9.07;;;;;;;;;;754061;184;922955;-54
2022/09/13 00:29:34;;;;;;;20.17;7.87;;;;;;;;;;756209;184;918844;-54
2022/09/13 00:32:00;;;;;;;11.70;6.13;;;;;;;;;;747371;185;919014;-54
2022/09/13 00:34:26;;;;;;;14.20;6.20;;;;;;;;;;758671;184;918983;-54
2022/09/13 00:36:52;;;;;;;16.73;6.13;;;;;;;;;;754750;184;918700;-56
2022/09/13 00:39:18;;;;;;;11.50;6.05;;;;;;;;;;751423;184;926452;-56
2022/09/13 00:41:44;;;;;;;10.67;6.60;;;;;;;;;;753948;185;818235;-55
2022/09/13 00:44:15;;;;;;;12.93;5.93;;;;;;;;;;755660;184;919355;-54
2022/09/13 00:46:42;;;;;;;18.03;6.97;;;;;;;;;;756064;184;918943;-54
2022/09/13 00:49:08;;;;;;;9.60;6.13;;;;;;;;;;750276;184;918734;-54
2022/09/13 00:51:34;;;;;;;13.50;5.90;;;;;;;;;;759253;184;819083;-55
2022/09/13 00:53:59;;;;;;;33.27;7.87;;;;;;;;;;753712;184;919344;-54
2022/09/13 00:56:26;;;;;;;7.60;5.70;;;;;;;;;;752329;184;918278;-54
2022/09/13 00:58:52;;;;;;;11.10;6.17;;;;;;;;;;757665;184;919067;-55
2022/09/13 01:01:18;;;;;;;17.33;7.20;;;;;;;;;;752673;184;919886;-54
2022/09/13 01:03:44;;;;;;;26.52;6.80;;;;;;;;;;752466;184;918163;-55
2022/09/13 01:06:11;;;;;;;19.70;7.50;;;;;;;;;;756773;185;834500;-55
2022/09/13 01:08:36;;;;;;;11.40;6.20;;;;;;;;;;756103;183;922258;-54
2022/09/13 01:11:03;;;;;;;7.20;5.83;;;;;;;;;;756050;184;918978;-55
2022/09/13 01:13:28;;;;;;;13.20;5.97;;;;;;;;;;747311;185;919261;-56
2022/09/13 01:15:54;;;;;;;20.10;7.05;;;;;;;;;;758153;184;816528;-58
2022/09/13 01:18:20;;;;;;;26.73;7.63;;;;;;;;;;752887;184;914837;-58
2022/09/13 01:21:01;;;;;;;16.40;7.20;;;;;;;;;;752635;184;950087;-56
2022/09/13 01:23:32;;;;;;;21.20;6.73;;;;;;;;;;753621;184;823734;-57
2022/09/13 01:26:14;;;;;;;15.53;6.50;;;;;;;;;;759582;184;814652;-57
2022/09/13 01:28:40;;;;;;;21.83;7.13;;;;;;;;;;755682;184;890537;-58
2022/09/13 01:31:06;;;;;;;20.50;7.40;;;;;;;;;;755714;184;917846;-57
2022/09/13 01:33:32;;;;;;;22.90;7.80;;;;;;;;;;753302;184;919298;-56
2022/09/13 01:36:01;;;;;;;22.07;10.00;;;;;;;;;;748034;184;919649;-57
2022/09/13 01:38:41;;;;;;;49.57;10.17;;;;;;;;;;749359;184;936777;-58
2022/09/13 01:41:08;;;;;;;32.70;10.33;;;;;;;;;;760800;184;918667;-58
2022/09/13 01:43:41;;;;;;;13.33;7.77;;;;;;;;;;756123;184;916266;-59
2022/09/13 01:46:08;;;;;;;18.33;7.77;;;;;;;;;;748848;182;915767;-57
2022/09/13 01:48:33;;;;;;;22.10;7.40;;;;;;;;;;756675;185;918167;-58
2022/09/13 01:50:59;;;;;;;16.97;7.10;;;;;;;;;;749286;185;666603;-57
2022/09/13 01:53:29;;;;;;;20.07;8.60;;;;;;;;;;759985;184;852459;-57
2022/09/13 01:56:00;;;;;;;28.85;7.82;;;;;;;;;;754916;182;919072;-58
2022/09/13 01:58:26;;;;;;;8.50;6.70;;;;;;;;;;762818;184;920442;-58
2022/09/13 02:01:08;;;;;;;10.40;6.57;;;;;;;;;;755030;183;920826;-57
2022/09/13 02:03:36;;;;;;;8.43;5.07;;;;;;;;;;752149;184;855088;-58
2022/09/13 02:06:05;;;;;;;28.20;6.77;;;;;;;;;;755251;184;919981;-59
2022/09/13 02:08:31;;;;;;;38.73;7.87;;;;;;;;;;750472;182;816265;-58
2022/09/13 02:10:59;;;;;;;38.07;7.23;;;;;;;;;;756457;185;820657;-56
2022/09/13 02:13:25;;;;;;;48.20;6.30;;;;;;;;;;755661;184;925082;-57
2022/09/13 02:15:50;;;;;;;29.80;5.70;;;;;;;;;;755036;184;919790;-58
2022/09/13 02:18:19;;;;;;;23.40;5.97;;;;;;;;;;756286;185;914229;-56
2022/09/13 02:20:45;;;;;;;17.87;7.37;;;;;;;;;;750047;185;816930;-57
2022/09/13 02:23:13;;;;;;;49.58;9.30;;;;;;;;;;755876;184;915808;-57
2022/09/13 02:25:39;;;;;;;21.97;6.07;;;;;;;;;;752713;184;903724;-59
2022/09/13 02:28:06;;;;;;;8.03;5.63;;;;;;;;;;751454;185;911673;-58
2022/09/13 02:30:32;;;;;;;7.50;5.70;;;;;;;;;;753152;184;912229;-57
2022/09/13 02:32:56;;;;;;;7.83;5.97;;;;;;;;;;752230;185;912346;-57
2022/09/13 02:35:25;;;;;;;9.07;6.93;;;;;;;;;;754887;185;616870;-58
2022/09/13 02:37:51;;;;;;;17.27;8.33;;;;;;;;;;758991;183;629260;-57
2022/09/13 02:40:22;;;;;;;12.00;7.67;;;;;;;;;;757826;184;920068;-57
2022/09/13 02:42:44;;;;;;;23.80;9.77;;;;;;;;;;750529;184;917579;-57
2022/09/13 02:45:09;;;;;;;26.70;9.40;;;;;;;;;;760909;184;626502;-58
2022/09/13 02:47:39;;;;;;;22.77;8.80;;;;;;;;;;758018;184;635183;-58
2022/09/13 02:50:27;;;;;;;22.93;8.50;;;;;;;;;;753612;184;819740;-58
2022/09/13 02:52:57;;;;;;;21.60;9.03;;;;;;;;;;753103;184;919238;-57
2022/09/13 02:55:25;;;;;;;20.30;9.37;;;;;;;;;;754478;184;905551;-58
2022/09/13 02:57:51;;;;;;;29.27;9.80;;;;;;;;;;755516;185;817420;-57
2022/09/13 03:00:17;;;;;;;63.20;12.40;;;;;;;;;;755050;184;918616;-56
2022/09/13 03:02:43;;;;;;;157.97;18.03;;;;;;;;;;749229;185;919311;-58
2022/09/13 03:05:09;;;;;;;166.63;16.30;;;;;;;;;;760182;184;915741;-58
2022/09/13 03:07:34;;;;;;;143.13;15.63;;;;;;;;;;752700;183;923073;-57
2022/09/13 03:10:01;;;;;;;33.17;10.67;;;;;;;;;;750777;184;919937;-58
2022/09/13 03:12:30;;;;;;;52.87;9.87;;;;;;;;;;754105;185;919264;-58
2022/09/13 03:14:56;;;;;;;61.20;9.23;;;;;;;;;;757211;183;919545;-57
2022/09/13 03:17:24;;;;;;;32.47;9.83;;;;;;;;;;754091;184;916301;-58
2022/09/13 03:19:53;;;;;;;56.63;10.07;;;;;;;;;;749099;185;921044;-57
2022/09/13 03:22:23;;;;;;;107.50;13.50;;;;;;;;;;760944;184;821237;-59
2022/09/13 03:24:55;;;;;;;87.30;13.10;;;;;;;;;;764872;184;817874;-58
2022/09/13 03:27:22;;;;;;;70.63;11.47;;;;;;;;;;746910;185;848286;-58
2022/09/13 03:29:58;;;;;;;66.37;13.37;;;;;;;;;;751053;185;916686;-57
2022/09/13 03:32:42;;;;;;;64.40;13.70;;;;;;;;;;754941;185;919021;-58
2022/09/13 03:35:23;;;;;;;55.77;10.77;;;;;;;;;;744413;185;918637;-57
2022/09/13 03:37:52;;;;;;;75.60;10.50;;;;;;;;;;753359;184;922907;-59
2022/09/13 03:40:17;;;;;;;91.57;13.73;;;;;;;;;;753162;185;919324;-56
2022/09/13 03:42:43;;;;;;;66.30;11.00;;;;;;;;;;751250;185;914640;-56
2022/09/13 03:45:09;;;;;;;135.33;12.60;;;;;;;;;;751733;184;921373;-56
2022/09/13 03:47:35;;;;;;;155.23;18.97;;;;;;;;;;754421;184;918950;-59
2022/09/13 03:50:01;;;;;;;105.53;12.93;;;;;;;;;;756852;183;919008;-56
2022/09/13 03:52:27;;;;;;;138.33;15.40;;;;;;;;;;756826;184;919368;-57
2022/09/13 03:54:54;;;;;;;101.03;13.85;;;;;;;;;;756574;184;921066;-56
2022/09/13 03:57:20;;;;;;;58.27;10.57;;;;;;;;;;759472;184;816441;-57
2022/09/13 03:59:46;;;;;;;59.27;11.30;;;;;;;;;;758796;184;919199;-56
2022/09/13 04:02:12;;;;;;;32.27;9.30;;;;;;;;;;757552;184;919831;-58
2022/09/13 04:04:38;;;;;;;33.77;10.53;;;;;;;;;;760549;184;918959;-57
2022/09/13 04:07:04;;;;;;;50.20;10.37;;;;;;;;;;753253;184;918329;-57
2022/09/13 04:09:30;;;;;;;44.17;9.37;;;;;;;;;;755324;185;919156;-58
2022/09/13 04:11:55;;;;;;;49.77;9.70;;;;;;;;;;760826;184;820614;-57
2022/09/13 04:14:25;;;;;;;74.07;13.53;;;;;;;;;;769104;181;818891;-57
2022/09/13 04:16:47;;;;;;;89.43;12.10;;;;;;;;;;749035;184;918305;-58
2022/09/13 04:19:13;;;;;;;104.53;11.60;;;;;;;;;;752872;180;919106;-58
2022/09/13 04:21:39;;;;;;;42.23;10.57;;;;;;;;;;753296;185;919292;-57
2022/09/13 04:24:05;;;;;;;26.00;9.70;;;;;;;;;;753450;184;918848;-57
2022/09/13 04:26:31;;;;;;;60.53;8.47;;;;;;;;;;755154;184;921532;-58
2022/09/13 04:28:56;;;;;;;38.90;7.80;;;;;;;;;;754605;184;919406;-58
2022/09/13 04:31:22;;;;;;;44.20;8.80;;;;;;;;;;750159;185;917435;-56
2022/09/13 04:33:48;;;;;;;48.97;9.50;;;;;;;;;;754058;184;920073;-58
2022/09/13 04:36:15;;;;;;;29.60;6.77;;;;;;;;;;760517;184;910845;-57
2022/09/13 04:38:40;;;;;;;35.87;10.70;;;;;;;;;;750085;185;919732;-56
2022/09/13 04:41:06;;;;;;;40.17;9.37;;;;;;;;;;752690;184;919004;-58
2022/09/13 04:43:31;;;;;;;17.93;7.50;;;;;;;;;;751249;182;918675;-57
2022/09/13 04:46:00;;;;;;;82.63;11.60;;;;;;;;;;758235;182;823568;-57
2022/09/13 04:48:25;;;;;;;80.37;9.93;;;;;;;;;;752605;184;919186;-59
2022/09/13 04:50:51;;;;;;;24.47;7.83;;;;;;;;;;753652;184;918895;-59
2022/09/13 04:53:17;;;;;;;42.13;9.03;;;;;;;;;;753098;184;891658;-58
2022/09/13 04:55:42;;;;;;;86.77;9.70;;;;;;;;;;751905;185;918259;-59
2022/09/13 04:58:08;;;;;;;120.22;12.77;;;;;;;;;;754202;183;920348;-58
2022/09/13 05:00:34;;;;;;;92.80;10.37;;;;;;;;;;758020;182;919321;-56
2022/09/13 05:03:00;;;;;;;96.90;11.00;;;;;;;;;;754984;184;919147;-56
2022/09/13 05:05:27;;;;;;;50.23;9.43;;;;;;;;;;754796;184;919131;-56
2022/09/13 05:07:52;;;;;;;38.63;8.50;;;;;;;;;;754832;184;884500;-57
2022/09/13 05:10:18;;;;;;;25.10;6.70;;;;;;;;;;761572;184;883526;-58
2022/09/13 05:12:43;;;;;;;23.53;8.47;;;;;;;;;;757432;184;919591;-59
2022/09/13 05:15:11;;;;;;;21.12;7.65;;;;;;;;;;754241;184;919344;-58
2022/09/13 05:17:35;;;;;;;22.50;7.60;;;;;;;;;;763196;183;817547;-57
2022/09/13 05:20:01;;;;;;;45.57;9.50;;;;;;;;;;756036;184;918788;-58
2022/09/13 05:22:27;;;;;;;37.00;9.03;;;;;;;;;;751294;185;919159;-58
2022/09/13 05:24:53;;;;;;;10.67;8.27;;;;;;;;;;759212;182;919491;-56
2022/09/13 05:27:19;;;;;;;12.17;7.60;;;;;;;;;;762445;184;621389;-57
2022/09/13 05:29:45;;;;;;;15.35;8.35;;;;;;;;;;758671;184;939426;-57
2022/09/13 05:32:11;;;;;;;22.00;9.83;;;;;;;;;;751816;185;1019511;-57
2022/09/13 05:34:36;;;;;;;12.57;8.20;;;;;;;;;;758889;182;919404;-58
2022/09/13 05:37:02;;;;;;;18.23;8.30;;;;;;;;;;752569;184;916201;-57
2022/09/13 05:39:28;;;;;;;25.03;7.67;;;;;;;;;;748719;185;816522;-57
2022/09/13 05:41:54;;;;;;;15.90;7.80;;;;;;;;;;755681;185;810796;-58
2022/09/13 05:44:20;;;;;;;12.47;8.67;;;;;;;;;;755092;184;919070;-57
2022/09/13 05:46:46;;;;;;;12.23;8.50;;;;;;;;;;750513;185;916390;-57
2022/09/13 05:49:12;;;;;;;11.63;8.80;;;;;;;;;;760545;184;815774;-58
2022/09/13 05:51:37;;;;;;;12.30;9.27;;;;;;;;;;750717;184;918124;-57
2022/09/13 05:54:03;;;;;;;16.10;9.38;;;;;;;;;;755311;183;919916;-58
2022/09/13 05:56:29;;;;;;;12.97;9.53;;;;;;;;;;754801;184;919425;-58
2022/09/13 05:58:55;;;;;;;11.53;9.07;;;;;;;;;;750826;184;918542;-58
2022/09/13 06:01:21;;;;;;;11.77;9.43;;;;;;;;;;752849;184;919015;-56
2022/09/13 06:03:48;;;;;;;16.37;11.07;;;;;;;;;;746399;185;919571;-58
2022/09/13 06:06:14;;;;;;;12.87;10.63;;;;;;;;;;754429;183;917535;-59
2022/09/13 06:08:40;;;;;;;17.10;11.80;;;;;;;;;;749619;182;919248;-56
2022/09/13 06:11:05;;;;;;;16.33;12.30;;;;;;;;;;755843;184;920081;-62
2022/09/13 06:13:31;;;;;;;19.60;11.90;;;;;;;;;;756409;184;919679;-57
2022/09/13 06:15:57;;;;;;;16.27;12.00;;;;;;;;;;758724;182;922185;-56
2022/09/13 06:18:24;;;;;;;14.57;11.00;;;;;;;;;;755555;183;921679;-59
2022/09/13 06:20:49;;;;;;;18.47;10.87;;;;;;;;;;759929;183;817915;-58
2022/09/13 06:23:15;;;;;;;19.23;12.73;;;;;;;;;;752913;184;918703;-58
2022/09/13 06:25:41;;;;;;;17.67;12.10;;;;;;;;;;758883;184;919560;-59
2022/09/13 06:28:07;;;;;;;17.20;12.03;;;;;;;;;;749082;183;918678;-59
2022/09/13 06:30:33;;;;;;;19.57;14.40;;;;;;;;;;753814;181;917595;-57
2022/09/13 06:32:59;;;;;;;18.40;14.47;;;;;;;;;;756441;184;747232;-57
2022/09/13 06:35:25;;;;;;;22.10;16.05;;;;;;;;;;754319;182;922254;-58
2022/09/13 06:37:50;;;;;;;26.50;16.83;;;;;;;;;;758313;184;919392;-58
2022/09/13 06:40:16;;;;;;;22.93;15.77;;;;;;;;;;755716;183;827730;-57
2022/09/13 06:42:42;;;;;;;22.20;16.07;;;;;;;;;;752818;183;918628;-57
2022/09/13 06:45:08;;;;;;;21.83;15.60;;;;;;;;;;758574;184;919919;-58
2022/09/13 06:47:34;;;;;;;25.50;17.83;;;;;;;;;;749066;180;918869;-57
2022/09/13 06:50:00;;;;;;;27.90;18.10;;;;;;;;;;749479;181;918345;-57
2022/09/13 06:52:26;;;;;;;27.17;19.50;;;;;;;;;;750048;182;912945;-59
2022/09/13 06:54:52;;;;;;;28.93;18.37;;;;;;;;;;757683;184;921393;-58
2022/09/13 06:57:18;;;;;;;32.23;20.90;;;;;;;;;;749628;185;919578;-57
2022/09/13 06:59:44;;;;;;;29.23;20.07;;;;;;;;;;753853;184;919128;-58
2022/09/13 07:02:09;;;;;;;30.50;21.13;;;;;;;;;;754548;185;918300;-58
2022/09/13 07:04:35;;;;;;;36.00;23.87;;;;;;;;;;749131;184;919079;-58
2022/09/13 07:07:01;;;;;;;29.80;22.13;;;;;;;;;;753684;182;916270;-56
2022/09/13 07:09:27;;;;;;;38.17;21.67;;;;;;;;;;752698;185;915455;-57
2022/09/13 07:11:53;;;;;;;27.83;20.63;;;;;;;;;;756586;182;816642;-57
2022/09/13 07:14:20;;;;;;;31.60;22.20;;;;;;;;;;751705;185;918810;-58
2022/09/13 07:16:46;;;;;;;30.97;21.80;;;;;;;;;;753902;184;918902;-58
2022/09/13 07:19:11;;;;;;;30.93;20.87;;;;;;;;;;765588;181;919913;-58
2022/09/13 07:21:37;;;;;;;26.53;20.47;;;;;;;;;;753387;184;920166;-58
2022/09/13 07:24:03;;;;;;;22.90;18.27;;;;;;;;;;750635;184;919103;-58
2022/09/13 07:26:30;;;;;;;25.90;16.57;;;;;;;;;;760560;184;852522;-58
2022/09/13 07:28:55;;;;;;;19.67;15.37;;;;;;;;;;752299;183;918736;-58
2022/09/13 07:31:26;;;;;;;29.17;15.35;;;;;;;;;;752087;184;919097;-59
2022/09/13 07:33:52;;;;;;;21.33;16.12;;;;;;;;;;760909;184;743884;-58
2022/09/13 07:36:18;;;;;;;15.70;13.67;;;;;;;;;;756946;182;921612;-58
2022/09/13 07:38:44;;;;;;;15.47;12.47;;;;;;;;;;751670;184;819467;-59
2022/09/13 07:41:11;;;;;;;16.92;11.38;;;;;;;;;;754563;182;923280;-59
2022/09/13 07:43:37;;;;;;;20.93;11.83;;;;;;;;;;760147;184;914615;-59
2022/09/13 07:46:06;;;;;;;15.73;11.47;;;;;;;;;;757053;184;916790;-58
2022/09/13 07:48:32;;;;;;;14.07;12.07;;;;;;;;;;751323;185;914647;-59
2022/09/13 07:50:59;;;;;;;12.70;9.80;;;;;;;;;;759698;184;919256;-58
2022/09/13 07:53:25;;;;;;;12.30;9.60;;;;;;;;;;757597;184;919355;-58
2022/09/13 07:55:51;;;;;;;13.13;9.03;;;;;;;;;;751556;185;918104;-59
2022/09/13 07:58:17;;;;;;;14.13;10.40;;;;;;;;;;750783;184;817239;-58
2022/09/13 08:00:43;;;;;;;10.53;8.60;;;;;;;;;;757979;181;919499;-58
2022/09/13 08:03:09;;;;;;;14.25;9.77;;;;;;;;;;754548;184;919346;-58
2022/09/13 08:05:37;;;;;;;12.60;7.73;;;;;;;;;;753814;185;918629;-57
2022/09/13 08:08:00;;;;;;;7.37;6.27;;;;;;;;;;755452;183;816885;-58
2022/09/13 08:10:26;;;;;;;7.60;6.53;;;;;;;;;;755512;184;917258;-58
2022/09/13 08:12:53;;;;;;;8.80;6.63;;;;;;;;;;751500;185;866680;-59
2022/09/13 08:15:18;;;;;;;12.13;6.73;;;;;;;;;;757388;184;916856;-58
2022/09/13 08:17:44;;;;;;;11.20;6.87;;;;;;;;;;752152;184;920677;-58
2022/09/13 08:20:10;;;;;;;10.50;5.97;;;;;;;;;;748465;185;916594;-58
2022/09/13 08:22:36;;;;;;;9.37;5.50;;;;;;;;;;754948;184;919516;-57
2022/09/13 08:25:02;;;;;;;10.20;5.63;;;;;;;;;;753968;180;918210;-57
2022/09/13 08:27:28;;;;;;;8.90;6.40;;;;;;;;;;751066;181;934081;-60
2022/09/13 08:29:53;;;;;;;8.60;5.67;;;;;;;;;;753252;182;919007;-59
2022/09/13 08:32:19;;;;;;;7.03;5.50;;;;;;;;;;754894;185;924832;-59
2022/09/13 08:34:45;;;;;;;6.77;4.70;;;;;;;;;;754974;184;815962;-57
2022/09/13 08:37:11;;;;;;;6.80;5.10;;;;;;;;;;750695;184;919424;-59
2022/09/13 08:39:37;;;;;;;9.00;5.70;;;;;;;;;;760219;183;918820;-57
2022/09/13 08:42:03;;;;;;;8.53;5.07;;;;;;;;;;749451;181;921531;-59
2022/09/13 08:44:32;;;;;;;6.30;5.10;;;;;;;;;;751933;184;919410;-59
2022/09/13 08:47:18;;;;;;;6.50;4.10;;;;;;;;;;753480;184;915954;-58
2022/09/13 08:49:44;;;;;;;5.50;4.65;;;;;;;;;;748902;184;915090;-58
2022/09/13 08:52:29;;;;;;;9.03;5.67;;;;;;;;;;761001;184;813571;-58
2022/09/13 08:54:55;;;;;;;7.73;5.70;;;;;;;;;;759260;184;916430;-58
2022/09/13 08:57:22;;;;;;;8.43;5.17;;;;;;;;;;750031;185;914381;-57
2022/09/13 09:00:07;;;;;;;6.33;5.17;;;;;;;;;;750333;182;919400;-58
2022/09/13 09:02:39;;;;;;;7.53;5.20;;;;;;;;;;751904;183;919157;-57
2022/09/13 09:05:05;;;;;;;6.73;4.93;;;;;;;;;;751426;185;918434;-57
2022/09/13 09:07:31;;;;;;;5.37;4.47;;;;;;;;;;760796;184;919403;-57
2022/09/13 09:10:01;;;;;;;9.03;5.40;;;;;;;;;;751197;185;919064;-57
2022/09/13 09:12:27;;;;;;;8.10;5.17;;;;;;;;;;755366;184;918986;-57
2022/09/13 09:15:09;;;;;;;5.93;4.27;;;;;;;;;;752379;184;945532;-57
2022/09/13 09:17:37;;;;;;;5.90;4.60;;;;;;;;;;748384;181;920472;-58
2022/09/13 09:20:07;;;;;;;9.83;4.57;;;;;;;;;;754010;184;919183;-57
2022/09/13 09:22:32;;;;;;;5.40;3.33;;;;;;;;;;754510;184;922020;-57
2022/09/13 09:24:58;;;;;;;4.60;3.47;;;;;;;;;;749320;185;918697;-56
2022/09/13 09:27:24;;;;;;;6.80;3.77;;;;;;;;;;756920;181;920183;-56
2022/09/13 09:29:50;;;;;;;5.33;3.67;;;;;;;;;;752220;184;919206;-56
2022/09/13 09:32:32;;;;;;;6.27;3.80;;;;;;;;;;752856;184;919276;-56
2022/09/13 09:35:01;;;;;;;5.90;3.70;;;;;;;;;;753439;183;919011;-57
2022/09/13 09:37:27;;;;;;;5.50;3.73;;;;;;;;;;751976;184;920919;-57
2022/09/13 09:39:53;;;;;;;4.83;3.70;;;;;;;;;;757390;185;819253;-57
2022/09/13 09:42:20;;;;;;;8.63;3.63;;;;;;;;;;757767;184;813969;-56
2022/09/13 09:44:46;;;;;;;6.40;3.00;;;;;;;;;;749578;185;915103;-55
2022/09/13 09:47:12;;;;;;;7.93;3.63;;;;;;;;;;754316;184;920017;-57
2022/09/13 09:52:13;;;;;;;8.97;4.13;;;;;;;;;;750086;182;919202;-56
2022/09/13 09:54:40;;;;;;;7.70;4.23;;;;;;;;;;750518;183;818618;-56
2022/09/13 09:57:06;;;;;;;5.80;4.17;;;;;;;;;;758079;184;919720;-56
2022/09/13 09:59:30;;;;;;;5.90;4.27;;;;;;;;;;754486;181;916024;-56
2022/09/13 10:01:56;;;;;;;5.27;3.70;;;;;;;;;;751852;184;909680;-56
2022/09/13 10:04:21;;;;;;;5.07;3.40;;;;;;;;;;754152;184;919254;-56
2022/09/13 10:06:47;;;;;;;6.37;4.23;;;;;;;;;;753417;184;920675;-56
2022/09/13 10:09:20;;;;;;;5.90;3.10;;;;;;;;;;749381;185;917238;-55
2022/09/13 10:11:49;;;;;;;6.27;2.70;;;;;;;;;;754719;184;920630;-55
2022/09/13 10:14:21;;;;;;;5.43;3.23;;;;;;;;;;754079;185;918897;-55
2022/09/13 10:16:46;;;;;;;3.77;2.97;;;;;;;;;;761656;185;918838;-55
2022/09/13 10:19:15;;;;;;;4.30;3.40;;;;;;;;;;756700;184;919233;-55
2022/09/13 10:21:40;;;;;;;6.40;2.97;;;;;;;;;;746603;185;920238;-55
2022/09/13 10:24:12;;;;;;;5.30;3.40;;;;;;;;;;756671;184;919777;-55
2022/09/13 10:26:37;;;;;;;6.87;3.50;;;;;;;;;;752259;184;919398;-55
2022/09/13 10:29:05;;;;;;;5.75;3.17;;;;;;;;;;753918;184;919655;-55
2022/09/13 10:31:31;;;;;;;4.13;2.93;;;;;;;;;;754073;184;921630;-55
2022/09/13 10:33:58;;;;;;;4.70;2.73;;;;;;;;;;752757;184;919595;-54
2022/09/13 10:36:24;;;;;;;5.20;3.23;;;;;;;;;;757443;184;918870;-54
2022/09/13 10:38:50;;;;;;;7.00;3.93;;;;;;;;;;754347;185;724970;-55
2022/09/13 10:41:20;;;;;;;4.77;3.33;;;;;;;;;;759630;184;933869;-54
2022/09/13 10:43:46;;;;;;;5.47;3.37;;;;;;;;;;754006;185;815137;-54
2022/09/13 10:46:11;;;;;;;7.20;3.37;;;;;;;;;;748663;184;920223;-55
2022/09/13 10:48:44;;;;;;;4.47;3.27;;;;;;;;;;753403;184;919193;-55
2022/09/13 10:51:29;;;;;;;5.70;3.33;;;;;;;;;;761541;184;849786;-55
2022/09/13 10:54:01;;;;;;;4.30;3.30;;;;;;;;;;758659;183;816385;-55
2022/09/13 10:56:27;;;;;;;8.77;3.80;;;;;;;;;;760409;184;761306;-55
2022/09/13 10:58:56;;;;;;;4.50;3.50;;;;;;;;;;750548;184;914381;-55
2022/09/13 11:01:29;;;;;;;4.67;4.07;;;;;;;;;;757852;184;921818;-55
2022/09/13 11:03:58;;;;;;;11.40;4.03;;;;;;;;;;749451;184;915222;-55
2022/09/13 11:06:30;;;;;;;7.33;3.70;;;;;;;;;;763373;183;919672;-55
2022/09/13 11:08:56;;;;;;;4.90;4.07;;;;;;;;;;755389;183;917201;-55
2022/09/13 11:11:36;;;;;;;6.45;3.95;;;;;;;;;;748287;184;920545;-55
2022/09/13 11:14:19;;;;;;;5.20;3.33;;;;;;;;;;750713;184;921470;-55
2022/09/13 11:16:50;;;;;;;6.30;2.90;;;;;;;;;;747426;184;920164;-55
2022/09/13 11:19:16;;;;;;;6.53;4.00;;;;;;;;;;753859;184;918708;-55
2022/09/13 11:21:53;;;;;;;6.77;4.10;;;;;;;;;;757951;184;906912;-55
2022/09/13 11:24:22;;;;;;;4.50;3.23;;;;;;;;;;753642;184;921792;-56
2022/09/13 11:26:50;;;;;;;5.10;3.60;;;;;;;;;;752929;184;919096;-55
2022/09/13 11:29:22;;;;;;;5.03;3.47;;;;;;;;;;755169;184;921174;-55
2022/09/13 11:31:50;;;;;;;6.47;4.47;;;;;;;;;;760713;184;818477;-55
2022/09/13 11:34:16;;;;;;;4.83;3.40;;;;;;;;;;751028;185;918960;-55
2022/09/13 11:36:48;;;;;;;6.00;3.93;;;;;;;;;;748878;181;918618;-55
2022/09/13 11:39:19;;;;;;;5.70;4.03;;;;;;;;;;753909;184;919469;-55
2022/09/13 11:41:45;;;;;;;6.32;3.72;;;;;;;;;;748923;185;919822;-55
2022/09/13 11:44:12;;;;;;;4.90;3.67;;;;;;;;;;759360;182;920671;-56
2022/09/13 11:46:44;;;;;;;5.33;3.43;;;;;;;;;;747679;185;918855;-55
2022/09/13 11:49:22;;;;;;;4.40;3.43;;;;;;;;;;749112;185;919542;-56
2022/09/13 11:51:52;;;;;;;5.23;3.93;;;;;;;;;;752172;184;917727;-55
2022/09/13 11:54:18;;;;;;;5.20;4.00;;;;;;;;;;758404;184;918453;-55
2022/09/13 11:56:44;;;;;;;5.97;4.97;;;;;;;;;;752805;182;910188;-54
2022/09/13 11:59:15;;;;;;;5.97;4.50;;;;;;;;;;752319;184;918831;-55
2022/09/13 12:01:44;;;;;;;5.60;3.70;;;;;;;;;;753913;184;919281;-54
2022/09/13 12:04:12;;;;;;;5.03;3.80;;;;;;;;;;756015;182;876422;-55
2022/09/13 12:06:36;;;;;;;4.00;3.20;;;;;;;;;;755117;184;923717;-55
2022/09/13 12:09:02;;;;;;;4.50;3.37;;;;;;;;;;749713;185;920694;-54
2022/09/13 12:11:31;;;;;;;6.60;3.93;;;;;;;;;;761039;183;816736;-55
2022/09/13 12:13:57;;;;;;;4.33;3.50;;;;;;;;;;764008;184;797124;-54
2022/09/13 12:16:23;;;;;;;9.50;3.50;;;;;;;;;;749336;184;918139;-54
2022/09/13 12:18:48;;;;;;;4.80;3.53;;;;;;;;;;749703;184;916926;-55
2022/09/13 12:21:14;;;;;;;5.70;2.77;;;;;;;;;;756200;183;813938;-54
2022/09/13 12:23:41;;;;;;;4.17;3.23;;;;;;;;;;754549;180;919508;-54
2022/09/13 12:26:08;;;;;;;5.80;3.33;;;;;;;;;;753486;184;919236;-54
2022/09/13 12:28:50;;;;;;;7.63;3.47;;;;;;;;;;754042;180;816549;-54
2022/09/13 12:31:18;;;;;;;3.90;3.37;;;;;;;;;;752540;184;919047;-55
2022/09/13 12:33:42;;;;;;;5.63;3.10;;;;;;;;;;747500;185;919950;-54
2022/09/13 12:36:27;;;;;;;4.37;3.50;;;;;;;;;;758559;184;880061;-55
2022/09/13 12:39:10;;;;;;;4.25;3.08;;;;;;;;;;748634;184;917755;-54
2022/09/13 12:41:54;;;;;;;5.40;3.30;;;;;;;;;;761402;182;941853;-54
2022/09/13 12:44:22;;;;;;;5.10;3.17;;;;;;;;;;749130;184;918648;-55
2022/09/13 12:46:51;;;;;;;5.55;3.55;;;;;;;;;;746687;180;921537;-55
2022/09/13 12:49:18;;;;;;;4.50;2.30;;;;;;;;;;756462;184;942251;-54
2022/09/13 12:51:59;;;;;;;8.40;3.83;;;;;;;;;;753136;184;919147;-55
2022/09/13 12:54:29;;;;;;;4.00;2.97;;;;;;;;;;759401;183;919586;-54
2022/09/13 12:56:56;;;;;;;3.90;2.63;;;;;;;;;;751279;185;926614;-55
2022/09/13 12:59:28;;;;;;;4.03;3.00;;;;;;;;;;752849;184;916932;-55
2022/09/13 13:01:54;;;;;;;5.20;3.73;;;;;;;;;;752445;184;918701;-55
2022/09/13 13:04:20;;;;;;;8.67;4.07;;;;;;;;;;755292;184;919131;-54
2022/09/13 13:06:50;;;;;;;4.97;3.70;;;;;;;;;;750130;185;921261;-54
2022/09/13 13:09:19;;;;;;;7.20;2.90;;;;;;;;;;756009;184;917710;-55
2022/09/13 13:11:44;;;;;;;4.70;3.27;;;;;;;;;;755335;185;924021;-54
2022/09/13 13:14:10;;;;;;;5.00;2.87;;;;;;;;;;753406;182;918378;-55
2022/09/13 13:16:36;;;;;;;4.20;3.00;;;;;;;;;;754458;184;920111;-55
2022/09/13 13:19:02;;;;;;;4.10;2.50;;;;;;;;;;752332;182;816563;-54
2022/09/13 13:21:33;;;;;;;3.60;2.73;;;;;;;;;;753026;183;920091;-55
2022/09/13 13:24:18;;;;;;;4.97;3.00;;;;;;;;;;759151;183;919318;-55
2022/09/13 13:26:48;;;;;;;5.00;3.30;;;;;;;;;;754867;183;916970;-55
2022/09/13 13:29:14;;;;;;;4.90;2.97;;;;;;;;;;753736;184;920987;-55
2022/09/13 13:31:39;;;;;;;5.43;3.07;;;;;;;;;;753810;183;917558;-55
2022/09/13 13:34:20;;;;;;;4.23;3.03;;;;;;;;;;747944;181;918980;-55
2022/09/13 13:36:47;;;;;;;4.77;3.10;;;;;;;;;;752146;184;919319;-54
2022/09/13 13:39:19;;;;;;;5.15;3.22;;;;;;;;;;750481;182;919605;-55
2022/09/13 13:41:49;;;;;;;5.03;3.70;;;;;;;;;;753668;184;920162;-55
2022/09/13 13:44:30;;;;;;;4.37;3.50;;;;;;;;;;753333;184;920791;-54
2022/09/13 13:47:02;;;;;;;15.50;3.57;;;;;;;;;;742034;188;816679;-54
2022/09/13 13:49:45;;;;;;;6.47;3.47;;;;;;;;;;738850;188;919486;-54
2022/09/13 13:52:25;;;;;;;6.70;3.60;;;;;;;;;;749073;186;920252;-54
2022/09/13 13:55:00;;;;;;;6.17;3.77;;;;;;;;;;750227;184;920454;-54
2022/09/13 13:57:27;;;;;;;7.30;4.37;;;;;;;;;;749090;185;920051;-54
2022/09/13 14:00:09;;;;;;;5.47;4.07;;;;;;;;;;746595;184;919695;-55
2022/09/13 14:02:35;;;;;;;4.20;3.15;;;;;;;;;;749309;185;919534;-55
2022/09/13 14:05:00;;;;;;;5.40;3.63;;;;;;;;;;753621;185;918308;-55
2022/09/13 14:07:29;;;;;;;6.17;3.97;;;;;;;;;;755696;184;817008;-55
2022/09/13 14:09:59;;;;;;;4.73;3.50;;;;;;;;;;756005;184;830762;-54
2022/09/13 14:12:28;;;;;;;7.17;3.40;;;;;;;;;;754835;182;913603;-55
2022/09/13 14:14:56;;;;;;;4.20;3.60;;;;;;;;;;753843;182;919467;-55
2022/09/13 14:17:25;;;;;;;4.77;3.27;;;;;;;;;;753585;185;918868;-55
2022/09/13 14:19:53;;;;;;;5.77;3.80;;;;;;;;;;754898;184;918998;-55
2022/09/13 14:22:19;;;;;;;4.10;3.23;;;;;;;;;;749410;185;919748;-55
2022/09/13 14:24:47;;;;;;;5.67;3.23;;;;;;;;;;758154;184;913949;-55